Time,TemperatureF,DewpointF,PressureIn,WindDirection,WindDirectionDegrees,WindSpeedMPH,WindSpeedGustMPH,Humidity,HourlyPrecipIn,Conditions,Clouds,dailyrainin,SoftwareType,DateUTC
2013-04-17 00:00:00,74.7,67.0,29.87,SSE,148,10.0,14.0,78,0.00,,,0.00,weatherlink.com 1.10,2013-04-17 05:00:00,
2013-04-17 00:16:00,74.4,68.0,29.87,South,191,8.0,14.0,79,0.00,,,0.00,weatherlink.com 1.10,2013-04-17 05:16:00,
2013-04-17 00:46:00,73.8,68.0,29.87,SSW,197,7.0,12.0,81,0.00,,,0.00,weatherlink.com 1.10,2013-04-17 05:46:00,
2013-04-17 01:01:00,73.5,68.0,29.88,SSE,160,6.0,13.0,82,0.00,,,0.00,weatherlink.com 1.10,2013-04-17 06:01:00,
2013-04-17 01:16:00,73.2,67.0,29.87,SE,131,4.0,12.0,82,0.00,,,0.00,weatherlink.com 1.10,2013-04-17 06:16:00,
2013-04-17 01:31:00,72.9,68.0,29.87,SE,131,6.0,11.0,83,0.00,,,0.00,weatherlink.com 1.10,2013-04-17 06:31:00,
2013-04-17 01:46:00,73.1,68.0,29.87,SE,138,6.0,9.0,83,0.00,,,0.00,weatherlink.com 1.10,2013-04-17 06:46:00,
2013-04-17 02:31:00,73.2,68.0,29.86,East,82,8.0,12.0,84,0.00,,,0.00,weatherlink.com 1.10,2013-04-17 07:31:00,
2013-04-17 02:46:00,73.2,69.0,29.86,SE,134,4.0,12.0,85,0.00,,,0.00,weatherlink.com 1.10,2013-04-17 07:46:00,
2013-04-17 03:01:00,73.1,68.0,29.86,SSE,148,7.0,-999.0,85,-99.99,,,0.00,weatherlink.com 1.10,2013-04-17 08:01:00,
2013-04-17 03:16:00,73.1,69.0,29.85,SSE,166,7.0,15.0,86,0.00,,,0.00,weatherlink.com 1.10,2013-04-17 08:16:00,
2013-04-17 03:31:00,72.9,69.0,29.85,SSE,155,6.0,12.0,87,0.00,,,0.00,weatherlink.com 1.10,2013-04-17 08:31:00,
2013-04-17 03:46:00,72.6,69.0,29.84,SE,135,4.0,15.0,88,0.00,,,0.00,weatherlink.com 1.10,2013-04-17 08:46:00,
2013-04-17 04:01:00,72.0,69.0,29.84,SE,142,5.0,11.0,91,0.00,,,0.00,weatherlink.com 1.10,2013-04-17 09:01:00,
2013-04-17 04:16:00,71.7,69.0,29.84,ESE,122,6.0,11.0,92,0.00,,,0.00,weatherlink.com 1.10,2013-04-17 09:16:00,
2013-04-17 04:31:00,72.0,70.0,29.84,SSE,148,4.0,11.0,92,0.00,,,0.00,weatherlink.com 1.10,2013-04-17 09:31:00,
2013-04-17 04:46:00,72.8,70.0,29.84,SE,131,4.0,11.0,91,0.00,,,0.00,weatherlink.com 1.10,2013-04-17 09:46:00,
2013-04-17 05:01:00,73.6,70.0,29.84,SE,125,8.0,16.0,89,0.00,,,0.00,weatherlink.com 1.10,2013-04-17 10:01:00,
2013-04-17 05:31:00,74.1,70.0,29.84,ESE,114,7.0,13.0,87,0.00,,,0.00,weatherlink.com 1.10,2013-04-17 10:31:00,
2013-04-17 05:46:00,74.0,70.0,29.84,SSE,166,5.0,17.0,88,0.00,,,0.00,weatherlink.com 1.10,2013-04-17 10:46:00,
2013-04-17 06:01:00,73.4,70.0,29.84,SE,142,9.0,13.0,90,0.00,,,0.00,weatherlink.com 1.10,2013-04-17 11:01:00,
2013-04-17 06:16:00,73.1,70.0,29.84,ESE,122,6.0,13.0,90,0.00,,,0.00,weatherlink.com 1.10,2013-04-17 11:16:00,
2013-04-17 06:31:00,73.1,70.0,29.84,SE,129,3.0,12.0,89,0.00,,,0.00,weatherlink.com 1.10,2013-04-17 11:31:00,
2013-04-17 06:46:00,73.3,70.0,29.84,East,101,6.0,12.0,88,0.00,,,0.00,weatherlink.com 1.10,2013-04-17 11:46:00,
2013-04-17 07:02:00,73.4,70.0,29.85,ESE,115,9.0,11.0,88,0.00,,,0.00,weatherlink.com 1.10,2013-04-17 12:02:00,
2013-04-17 07:16:00,73.6,69.0,29.85,SSE,162,4.0,13.0,86,0.00,,,0.00,weatherlink.com 1.10,2013-04-17 12:16:00,
2013-04-17 07:31:00,73.8,69.0,29.85,SE,137,5.0,17.0,85,0.00,,,0.00,weatherlink.com 1.10,2013-04-17 12:31:00,
2013-04-17 07:46:00,73.9,69.0,29.85,SE,124,8.0,18.0,83,0.00,,,0.00,weatherlink.com 1.10,2013-04-17 12:46:00,
2013-04-17 08:01:00,74.0,69.0,29.85,SE,146,6.0,15.0,83,0.00,,,0.00,weatherlink.com 1.10,2013-04-17 13:01:00,
2013-04-17 08:16:00,74.0,69.0,29.85,SSE,167,9.0,16.0,83,0.00,,,0.00,weatherlink.com 1.10,2013-04-17 13:16:00,
2013-04-17 08:31:00,74.1,68.0,29.85,SSE,158,7.0,17.0,82,0.00,,,0.00,weatherlink.com 1.10,2013-04-17 13:31:00,
2013-04-17 08:47:00,74.3,68.0,29.85,SSE,163,11.0,19.0,81,0.00,,,0.00,weatherlink.com 1.10,2013-04-17 13:47:00,
2013-04-17 09:02:00,74.4,68.0,29.84,SSW,200,12.0,18.0,81,0.00,,,0.00,weatherlink.com 1.10,2013-04-17 14:02:00,
2013-04-17 09:17:00,74.7,68.0,29.84,SSW,195,11.0,21.0,80,0.00,,,0.00,weatherlink.com 1.10,2013-04-17 14:17:00,
2013-04-17 09:32:00,75.2,68.0,29.84,SSE,165,15.0,19.0,78,0.00,,,0.00,weatherlink.com 1.10,2013-04-17 14:32:00,
2013-04-17 09:47:00,75.5,67.0,29.84,SE,141,11.0,20.0,76,0.00,,,0.00,weatherlink.com 1.10,2013-04-17 14:47:00,
2013-04-17 10:02:00,75.7,68.0,29.84,SE,132,7.0,18.0,76,0.00,,,0.00,weatherlink.com 1.10,2013-04-17 15:02:00,
2013-04-17 10:17:00,76.3,68.0,29.83,SSE,165,11.0,23.0,75,0.00,,,0.00,weatherlink.com 1.10,2013-04-17 15:17:00,
2013-04-17 10:32:00,76.8,68.0,29.83,ESE,121,15.0,21.0,73,0.00,,,0.00,weatherlink.com 1.10,2013-04-17 15:32:00,
2013-04-17 10:50:00,77.1,67.0,29.82,SSE,165,10.0,21.0,71,0.00,,,0.00,weatherlink.com 1.10,2013-04-17 15:50:00,
2013-04-17 11:01:00,77.9,67.0,29.82,South,177,8.0,26.0,69,0.00,,,0.00,weatherlink.com 1.10,2013-04-17 16:01:00,
2013-04-17 11:16:00,78.6,68.0,29.81,ESE,118,9.0,20.0,69,0.00,,,0.00,weatherlink.com 1.10,2013-04-17 16:16:00,
2013-04-17 11:31:00,79.7,67.0,29.82,ESE,112,14.0,21.0,66,0.00,,,0.00,weatherlink.com 1.10,2013-04-17 16:31:00,
2013-04-17 11:46:00,80.1,68.0,29.80,SW,217,12.0,19.0,66,0.00,,,0.00,weatherlink.com 1.10,2013-04-17 16:46:00,
2013-04-17 12:01:00,80.5,67.0,29.80,ESE,115,10.0,24.0,64,0.00,,,0.00,weatherlink.com 1.10,2013-04-17 17:01:00,
2013-04-17 12:16:00,81.0,68.0,29.79,SE,131,13.0,23.0,64,0.00,,,0.00,weatherlink.com 1.10,2013-04-17 17:16:00,
2013-04-17 12:31:00,81.7,67.0,29.78,SE,128,13.0,24.0,62,0.00,,,0.00,weatherlink.com 1.10,2013-04-17 17:31:00,
2013-04-17 12:47:00,82.9,68.0,29.77,South,179,20.0,23.0,60,0.00,,,0.00,weatherlink.com 1.10,2013-04-17 17:47:00,
2013-04-17 13:02:00,82.8,67.0,29.77,SE,131,11.0,22.0,59,0.00,,,0.00,weatherlink.com 1.10,2013-04-17 18:02:00,
2013-04-17 13:17:00,83.6,67.0,29.76,SSE,153,13.0,23.0,58,0.00,,,0.00,weatherlink.com 1.10,2013-04-17 18:17:00,
2013-04-17 13:32:00,84.2,67.0,29.75,SE,138,16.0,20.0,57,0.00,,,0.00,weatherlink.com 1.10,2013-04-17 18:32:00,
2013-04-17 13:47:00,84.3,67.0,29.74,SSE,153,18.0,26.0,56,0.00,,,0.00,weatherlink.com 1.10,2013-04-17 18:47:00,
2013-04-17 14:02:00,84.4,67.0,29.74,SSE,150,12.0,22.0,56,0.00,,,0.00,weatherlink.com 1.10,2013-04-17 19:02:00,
2013-04-17 14:17:00,84.8,67.0,29.73,South,181,14.0,24.0,55,0.00,,,0.00,weatherlink.com 1.10,2013-04-17 19:17:00,
2013-04-17 14:32:00,84.7,67.0,29.72,SSW,203,11.0,19.0,56,0.00,,,0.00,weatherlink.com 1.10,2013-04-17 19:32:00,
2013-04-17 14:47:00,85.1,67.0,29.72,ESE,105,15.0,29.0,55,0.00,,,0.00,weatherlink.com 1.10,2013-04-17 19:47:00,
2013-04-17 15:02:00,84.8,67.0,29.72,South,184,11.0,23.0,55,0.00,,,0.00,weatherlink.com 1.10,2013-04-17 20:02:00,
2013-04-17 15:17:00,85.1,68.0,29.71,SE,137,8.0,20.0,56,0.00,,,0.00,weatherlink.com 1.10,2013-04-17 20:17:00,
2013-04-17 15:32:00,85.4,67.0,29.70,SE,136,8.0,20.0,55,0.00,,,0.00,weatherlink.com 1.10,2013-04-17 20:32:00,
2013-04-17 15:47:00,85.2,67.0,29.69,SE,131,9.0,22.0,55,0.00,,,0.00,weatherlink.com 1.10,2013-04-17 20:47:00,
2013-04-17 16:02:00,85.0,68.0,29.69,SSE,148,8.0,23.0,56,0.00,,,0.00,weatherlink.com 1.10,2013-04-17 21:02:00,
2013-04-17 16:17:00,84.5,67.0,29.69,SE,141,7.0,22.0,56,0.00,,,0.00,weatherlink.com 1.10,2013-04-17 21:17:00,
2013-04-17 16:32:00,83.8,67.0,29.69,SE,144,6.0,23.0,57,0.00,,,0.00,weatherlink.com 1.10,2013-04-17 21:32:00,
2013-04-17 16:47:00,83.5,67.0,29.68,South,184,13.0,23.0,57,0.00,,,0.00,weatherlink.com 1.10,2013-04-17 21:47:00,
2013-04-17 17:02:00,83.3,67.0,29.67,SSE,150,11.0,20.0,58,0.00,,,0.00,weatherlink.com 1.10,2013-04-17 22:02:00,
2013-04-17 17:17:00,83.8,67.0,29.67,SSW,201,7.0,18.0,57,0.00,,,0.00,weatherlink.com 1.10,2013-04-17 22:17:00,
2013-04-17 17:32:00,83.3,67.0,29.66,SSE,151,8.0,20.0,59,0.00,,,0.00,weatherlink.com 1.10,2013-04-17 22:32:00,
2013-04-17 17:47:00,83.5,67.0,29.66,South,170,16.0,20.0,58,0.00,,,0.00,weatherlink.com 1.10,2013-04-17 22:47:00,
2013-04-17 18:02:00,82.9,68.0,29.66,South,175,10.0,21.0,60,0.00,,,0.00,weatherlink.com 1.10,2013-04-17 23:02:00,
2013-04-17 18:17:00,82.3,67.0,29.66,South,181,11.0,21.0,60,0.00,,,0.00,weatherlink.com 1.10,2013-04-17 23:17:00,
2013-04-17 18:32:00,81.9,67.0,29.65,SSE,153,11.0,26.0,60,0.00,,,0.00,weatherlink.com 1.10,2013-04-17 23:32:00,
2013-04-17 18:47:00,81.4,67.0,29.65,South,176,8.0,20.0,62,0.00,,,0.00,weatherlink.com 1.10,2013-04-17 23:47:00,
2013-04-17 19:02:00,80.9,68.0,29.65,SSW,205,10.0,18.0,64,0.00,,,0.00,weatherlink.com 1.10,2013-04-18 00:02:00,
2013-04-17 19:17:00,80.5,68.0,29.64,ESE,117,14.0,21.0,65,0.00,,,0.00,weatherlink.com 1.10,2013-04-18 00:17:00,
2013-04-17 19:32:00,80.3,67.0,29.64,SE,124,7.0,20.0,65,0.00,,,0.00,weatherlink.com 1.10,2013-04-18 00:32:00,
2013-04-17 19:47:00,79.9,68.0,29.65,SE,136,9.0,20.0,66,0.00,,,0.00,weatherlink.com 1.10,2013-04-18 00:47:00,
2013-04-17 20:02:00,79.6,68.0,29.64,SSE,149,9.0,18.0,67,0.00,,,0.00,weatherlink.com 1.10,2013-04-18 01:02:00,
2013-04-17 20:17:00,79.2,68.0,29.63,SSE,153,10.0,17.0,68,0.00,,,0.00,weatherlink.com 1.10,2013-04-18 01:17:00,
2013-04-17 20:32:00,78.6,68.0,29.62,SE,135,7.0,20.0,69,0.00,,,0.00,weatherlink.com 1.10,2013-04-18 01:32:00,
2013-04-17 20:47:00,78.2,68.0,29.62,SSE,153,15.0,23.0,70,0.00,,,0.00,weatherlink.com 1.10,2013-04-18 01:47:00,
2013-04-17 21:02:00,78.0,68.0,29.62,South,169,8.0,22.0,72,0.00,,,0.00,weatherlink.com 1.10,2013-04-18 02:02:00,
2013-04-17 21:18:00,77.8,69.0,29.62,ESE,118,10.0,26.0,74,0.00,,,0.00,weatherlink.com 1.10,2013-04-18 02:18:00,
2013-04-17 21:32:00,77.6,69.0,29.62,SSE,148,13.0,25.0,75,0.00,,,0.00,weatherlink.com 1.10,2013-04-18 02:32:00,
2013-04-17 21:47:00,77.3,70.0,29.62,ESE,120,10.0,24.0,77,0.00,,,0.00,weatherlink.com 1.10,2013-04-18 02:47:00,
2013-04-17 22:03:00,76.8,70.0,29.63,SE,139,12.0,24.0,79,0.00,,,0.00,weatherlink.com 1.10,2013-04-18 03:03:00,
2013-04-17 22:18:00,76.5,70.0,29.64,SSE,156,17.0,29.0,80,0.00,,,0.00,weatherlink.com 1.10,2013-04-18 03:18:00,
2013-04-17 22:33:00,76.3,70.0,29.63,SSE,149,6.0,24.0,81,0.00,,,0.00,weatherlink.com 1.10,2013-04-18 03:33:00,
2013-04-17 22:48:00,76.2,70.0,29.63,SSE,160,16.0,24.0,81,0.00,,,0.00,weatherlink.com 1.10,2013-04-18 03:48:00,
2013-04-17 23:03:00,76.3,70.0,29.62,SSW,194,11.0,22.0,81,0.00,,,0.00,weatherlink.com 1.10,2013-04-18 04:03:00,
2013-04-17 23:18:00,76.3,70.0,29.62,SW,230,10.0,25.0,82,0.00,,,0.00,weatherlink.com 1.10,2013-04-18 04:18:00,
2013-04-17 23:33:00,76.4,71.0,29.62,South,174,12.0,25.0,82,0.00,,,0.00,weatherlink.com 1.10,2013-04-18 04:33:00,
2013-04-17 23:48:00,76.5,71.0,29.62,SSW,203,23.0,23.0,82,0.00,,,0.00,weatherlink.com 1.10,2013-04-18 04:48:00,